Map

Track Data

SID SEASON NUMBER BASIN SUBBASIN NAME ISO_TIME NATURE LAT LON WMO_WIND WMO_PRES WMO_AGENCY TRACK_TYPE DIST2LAND LANDFALL IFLAG USA_AGENCY USA_ATCF_ID USA_LAT USA_LON USA_RECORD USA_STATUS USA_WIND USA_PRES USA_SSHS USA_R34_NE USA_R34_SE USA_R34_SW USA_R34_NW USA_R50_NE USA_R50_SE USA_R50_SW USA_R50_NW USA_R64_NE USA_R64_SE USA_R64_SW USA_R64_NW USA_POCI USA_ROCI USA_RMW USA_EYE TOKYO_LAT TOKYO_LON TOKYO_GRADE TOKYO_WIND TOKYO_PRES TOKYO_R50_DIR TOKYO_R50_LONG TOKYO_R50_SHORT TOKYO_R30_DIR TOKYO_R30_LONG TOKYO_R30_SHORT TOKYO_LAND CMA_LAT CMA_LON CMA_CAT CMA_WIND CMA_PRES HKO_LAT HKO_LON HKO_CAT HKO_WIND HKO_PRES NEWDELHI_LAT NEWDELHI_LON NEWDELHI_GRADE NEWDELHI_WIND NEWDELHI_PRES NEWDELHI_CI NEWDELHI_DP NEWDELHI_POCI REUNION_LAT REUNION_LON REUNION_TYPE REUNION_WIND REUNION_PRES REUNION_TNUM REUNION_CI REUNION_RMW REUNION_R34_NE REUNION_R34_SE REUNION_R34_SW REUNION_R34_NW REUNION_R50_NE REUNION_R50_SE REUNION_R50_SW REUNION_R50_NW REUNION_R64_NE REUNION_R64_SE REUNION_R64_SW REUNION_R64_NW BOM_LAT BOM_LON BOM_TYPE BOM_WIND BOM_PRES BOM_TNUM BOM_CI BOM_RMW BOM_R34_NE BOM_R34_SE BOM_R34_SW BOM_R34_NW BOM_R50_NE BOM_R50_SE BOM_R50_SW BOM_R50_NW BOM_R64_NE BOM_R64_SE BOM_R64_SW BOM_R64_NW BOM_ROCI BOM_POCI BOM_EYE BOM_POS_METHOD BOM_PRES_METHOD NADI_LAT NADI_LON NADI_CAT NADI_WIND NADI_PRES WELLINGTON_LAT WELLINGTON_LON WELLINGTON_WIND WELLINGTON_PRES DS824_LAT DS824_LON DS824_STAGE DS824_WIND DS824_PRES TD9636_LAT TD9636_LON TD9636_STAGE TD9636_WIND TD9636_PRES TD9635_LAT TD9635_LON TD9635_WIND TD9635_PRES TD9635_ROCI NEUMANN_LAT NEUMANN_LON NEUMANN_CLASS NEUMANN_WIND NEUMANN_PRES MLC_LAT MLC_LON MLC_CLASS MLC_WIND MLC_PRES USA_GUST BOM_GUST BOM_GUST_PER REUNION_GUST REUNION_GUST_PER USA_SEAHGT USA_SEARAD_NE USA_SEARAD_SE USA_SEARAD_SW USA_SEARAD_NW STORM_SPEED STORM_DIR
1965259N13340 1965 96 NA NA CAROL 1965-09-16 06:00:00 TS 13.3000 -20.1000 25 hurdat_atl main 321 321 O_____________ hurdat_atl AL041965 13.3000 -20.1000 TD 25 -1 19 261
1965259N13340 1965 96 NA NA CAROL 1965-09-16 09:00:00 TS 13.1533 -21.0602 main 423 423 P_____________ AL041965 13.1533 -21.0602 TD 25 -1 19 261
1965259N13340 1965 96 NA NA CAROL 1965-09-16 12:00:00 TS 13.0000 -22.0000 25 hurdat_atl main 521 521 O_____________ hurdat_atl AL041965 13.0000 -22.0000 TD 25 -1 18 260
1965259N13340 1965 96 NA NA CAROL 1965-09-16 15:00:00 TS 12.8421 -22.9074 main 621 621 P_____________ AL041965 12.8421 -22.9074 TD 25 -1 18 260
1965259N13340 1965 96 NA NA CAROL 1965-09-16 18:00:00 TS 12.7000 -23.8000 25 hurdat_atl main 716 716 O_____________ hurdat_atl AL041965 12.7000 -23.8000 TD 25 -1 18 262
1965259N13340 1965 96 NA NA CAROL 1965-09-16 21:00:00 TS 12.5922 -24.6999 main 813 813 P_____________ AL041965 12.5922 -24.6999 TD 25 -1 18 264
1965259N13340 1965 96 NA NA CAROL 1965-09-17 00:00:00 TS 12.5000 -25.6000 25 hurdat_atl main 909 909 O_____________ hurdat_atl AL041965 12.5000 -25.6000 TD 25 -1 18 263
1965259N13340 1965 96 NA NA CAROL 1965-09-17 03:00:00 TS 12.3847 -26.5001 main 1006 1006 P_____________ AL041965 12.3847 -26.5001 TD 25 -1 18 264
1965259N13340 1965 96 NA NA CAROL 1965-09-17 06:00:00 TS 12.3000 -27.4000 25 hurdat_atl main 1104 1104 O_____________ hurdat_atl AL041965 12.3000 -27.4000 TD 25 -1 18 267
1965259N13340 1965 96 NA NA CAROL 1965-09-17 09:00:00 TS 12.2776 -28.3449 main 1198 1198 P_____________ AL041965 12.2776 -28.3449 TD 27 -1 18 270
1965259N13340 1965 96 NA NA CAROL 1965-09-17 12:00:00 TS 12.3000 -29.2000 30 hurdat_atl main 1293 1293 O_____________ hurdat_atl AL041965 12.3000 -29.2000 TD 30 -1 15 272
1965259N13340 1965 96 NA NA CAROL 1965-09-17 15:00:00 TS 12.3346 -29.8525 main 1367 1367 P_____________ AL041965 12.3346 -29.8525 TD 32 -1 12 275
1965259N13340 1965 96 NA NA CAROL 1965-09-17 18:00:00 TS 12.4000 -30.4000 35 hurdat_atl main 1418 1418 O_____________ hurdat_atl AL041965 12.4000 -30.4000 TS 35 0 11 278
1965259N13340 1965 96 NA NA CAROL 1965-09-17 21:00:00 TS 12.4848 -30.9575 main 1480 1480 P_____________ AL041965 12.4848 -30.9575 TS 37 0 11 281
1965259N13340 1965 96 NA NA CAROL 1965-09-18 00:00:00 TS 12.6000 -31.5000 40 hurdat_atl main 1531 1531 O_____________ hurdat_atl AL041965 12.6000 -31.5000 TS 40 0 11 283
1965259N13340 1965 96 NA NA CAROL 1965-09-18 03:00:00 TS 12.7424 -32.0575 main 1593 1591 P_____________ AL041965 12.7424 -32.0575 TS 40 0 11 286
1965259N13340 1965 96 NA NA CAROL 1965-09-18 06:00:00 TS 12.9000 -32.6000 40 hurdat_atl main 1643 1643 O_____________ hurdat_atl AL041965 12.9000 -32.6000 TS 40 0 11 287
1965259N13340 1965 96 NA NA CAROL 1965-09-18 09:00:00 TS 13.0499 -33.1076 main 1695 1693 P_____________ AL041965 13.0499 -33.1076 TS 40 0 10 287
1965259N13340 1965 96 NA NA CAROL 1965-09-18 12:00:00 TS 13.2000 -33.6000 40 hurdat_atl main 1746 1746 O_____________ hurdat_atl AL041965 13.2000 -33.6000 TS 40 0 10 286
1965259N13340 1965 96 NA NA CAROL 1965-09-18 15:00:00 TS 13.3273 -34.0853 main 1798 1798 P_____________ AL041965 13.3273 -34.0853 TS 40 0 10 287
1965259N13340 1965 96 NA NA CAROL 1965-09-18 18:00:00 TS 13.5000 -34.6000 40 hurdat_atl main 1849 1849 O_____________ hurdat_atl AL041965 13.5000 -34.6000 TS 40 0 12 292
1965259N13340 1965 96 NA NA CAROL 1965-09-18 21:00:00 TS 13.7700 -35.1850 main 1910 1910 P_____________ AL041965 13.7700 -35.1850 TS 40 0 13 297
1965259N13340 1965 96 NA NA CAROL 1965-09-19 00:00:00 TS 14.1000 -35.8000 40 hurdat_atl main 1955 1952 O_____________ hurdat_atl AL041965 14.1000 -35.8000 TS 40 0 14 300
1965259N13340 1965 96 NA NA CAROL 1965-09-19 03:00:00 TS 14.4424 -36.4001 main 1974 1959 P_____________ AL041965 14.4424 -36.4001 TS 40 0 14 301
1965259N13340 1965 96 NA NA CAROL 1965-09-19 06:00:00 TS 14.8000 -37.0000 40 hurdat_atl main 1959 1927 O_____________ hurdat_atl AL041965 14.8000 -37.0000 TS 40 0 14 300
1965259N13340 1965 96 NA NA CAROL 1965-09-19 09:00:00 TS 15.1425 -37.6301 main 1927 1904 P_____________ AL041965 15.1425 -37.6301 TS 40 0 14 301
1965259N13340 1965 96 NA NA CAROL 1965-09-19 12:00:00 TS 15.5000 -38.2000 40 hurdat_atl main 1904 1894 O_____________ hurdat_atl AL041965 15.5000 -38.2000 TS 40 0 12 307
1965259N13340 1965 96 NA NA CAROL 1965-09-19 15:00:00 TS 15.8923 -38.6452 main 1901 1893 P_____________ AL041965 15.8923 -38.6452 TS 40 0 11 316
1965259N13340 1965 96 NA NA CAROL 1965-09-19 18:00:00 TS 16.3000 -39.0000 40 hurdat_atl main 1900 1900 O_____________ hurdat_atl AL041965 16.3000 -39.0000 TS 40 0 10 321
1965259N13340 1965 96 NA NA CAROL 1965-09-19 21:00:00 TS 16.6999 -39.3301 main 1909 1901 P_____________ AL041965 16.6999 -39.3301 TS 42 0 10 324
1965259N13340 1965 96 NA NA CAROL 1965-09-20 00:00:00 TS 17.1000 -39.6000 45 hurdat_atl main 1919 1919 O_____________ hurdat_atl AL041965 17.1000 -39.6000 TS 45 0 9 329
1965259N13340 1965 96 NA NA CAROL 1965-09-20 03:00:00 TS 17.4849 -39.8227 main 1938 1938 P_____________ AL041965 17.4849 -39.8227 TS 47 0 9 334
1965259N13340 1965 96 NA NA CAROL 1965-09-20 06:00:00 TS 17.9000 -40.0000 50 hurdat_atl main 1958 1958 O_____________ hurdat_atl AL041965 17.9000 -40.0000 TS 50 0 10 341
1965259N13340 1965 96 NA NA CAROL 1965-09-20 09:00:00 TS 18.4000 -40.1576 main 1987 1987 P_____________ AL041965 18.4000 -40.1576 TS 52 0 10 344
1965259N13340 1965 96 NA NA CAROL 1965-09-20 12:00:00 TS 18.9000 -40.3000 55 hurdat_atl main 2025 2025 O_____________ hurdat_atl AL041965 18.9000 -40.3000 TS 55 0 10 343
1965259N13340 1965 96 NA NA CAROL 1965-09-20 15:00:00 TS 19.3150 -40.4576 main 2048 2048 P_____________ AL041965 19.3150 -40.4576 TS 60 0 9 341
1965259N13340 1965 96 NA NA CAROL 1965-09-20 18:00:00 TS 19.7000 -40.6000 65 hurdat_atl main 2078 2078 O_____________ hurdat_atl AL041965 19.7000 -40.6000 HU 65 1 8 342
1965259N13340 1965 96 NA NA CAROL 1965-09-20 21:00:00 TS 20.0850 -40.7151 main 2107 2107 P_____________ AL041965 20.0850 -40.7151 HU 70 1 8 347
1965259N13340 1965 96 NA NA CAROL 1965-09-21 00:00:00 TS 20.5000 -40.8000 75 976 hurdat_atl main 2135 2135 O_____________ hurdat_atl AL041965 20.5000 -40.8000 HU 75 976 1 9 351
1965259N13340 1965 96 NA NA CAROL 1965-09-21 03:00:00 TS 20.9550 -40.8576 main 2173 2173 P_____________ AL041965 20.9550 -40.8576 HU 77 975 1 10 354
1965259N13340 1965 96 NA NA CAROL 1965-09-21 06:00:00 TS 21.5000 -40.9000 80 hurdat_atl main 2218 2218 I_____________ hurdat_atl AL041965 21.5000 -40.9000 HU 80 975 1 12 356
1965259N13340 1965 96 NA NA CAROL 1965-09-21 09:00:00 TS 22.1325 -40.9501 main 2266 2266 P_____________ AL041965 22.1325 -40.9501 HU 80 974 1 14 356
1965259N13340 1965 96 NA NA CAROL 1965-09-21 12:00:00 TS 22.9000 -41.0000 80 974 hurdat_atl main 2340 2340 O_____________ hurdat_atl AL041965 22.9000 -41.0000 HU 80 974 1 17 357
1965259N13340 1965 96 NA NA CAROL 1965-09-21 15:00:00 TS 23.8050 -41.0500 main 2419 2419 P_____________ AL041965 23.8050 -41.0500 HU 80 1 19 357
1965259N13340 1965 96 NA NA CAROL 1965-09-21 18:00:00 TS 24.8000 -41.1000 80 hurdat_atl main 2441 2418 O_____________ hurdat_atl AL041965 24.8000 -41.1000 HU 80 1 20 358
1965259N13340 1965 96 NA NA CAROL 1965-09-21 21:00:00 TS 25.7925 -41.1428 main 2415 2406 P_____________ AL041965 25.7925 -41.1428 HU 80 1 20 358
1965259N13340 1965 96 NA NA CAROL 1965-09-22 00:00:00 TS 26.8000 -41.2000 80 hurdat_atl main 2404 2347 O_____________ hurdat_atl AL041965 26.8000 -41.2000 HU 80 1 20 357
1965259N13340 1965 96 NA NA CAROL 1965-09-22 03:00:00 TS 27.8000 -41.2779 main 2336 2240 P_____________ AL041965 27.8000 -41.2779 HU 80 1 20 355
1965259N13340 1965 96 NA NA CAROL 1965-09-22 06:00:00 TS 28.8000 -41.4000 80 hurdat_atl main 2230 2120 O_____________ hurdat_atl AL041965 28.8000 -41.4000 HU 80 1 21 352
1965259N13340 1965 96 NA NA CAROL 1965-09-22 09:00:00 TS 29.8300 -41.5848 main 2120 2021 P_____________ AL041965 29.8300 -41.5848 HU 80 1 20 350
1965259N13340 1965 96 NA NA CAROL 1965-09-22 12:00:00 TS 30.8000 -41.8000 80 980 hurdat_atl main 2011 1923 O_____________ hurdat_atl AL041965 30.8000 -41.8000 HU 80 980 1 19 349
1965259N13340 1965 96 NA NA CAROL 1965-09-22 15:00:00 TS 31.6824 -42.0002 main 1913 1835 P_____________ AL041965 31.6824 -42.0002 HU 77 1 16 348
1965259N13340 1965 96 NA NA CAROL 1965-09-22 18:00:00 TS 32.4000 -42.2000 75 hurdat_atl main 1835 1777 O_____________ hurdat_atl AL041965 32.4000 -42.2000 HU 75 1 13 344
1965259N13340 1965 96 NA NA CAROL 1965-09-22 21:00:00 TS 32.9250 -42.4152 main 1777 1729 P_____________ AL041965 32.9250 -42.4152 HU 72 1 10 340
1965259N13340 1965 96 NA NA CAROL 1965-09-23 00:00:00 TS 33.3000 -42.6000 70 hurdat_atl main 1729 1695 O_____________ hurdat_atl AL041965 33.3000 -42.6000 HU 70 1 7 341
1965259N13340 1965 96 NA NA CAROL 1965-09-23 03:00:00 TS 33.6299 -42.7005 main 1695 1661 P_____________ AL041965 33.6299 -42.7005 HU 67 1 6 344
1965259N13340 1965 96 NA NA CAROL 1965-09-23 06:00:00 TS 33.9000 -42.8000 65 hurdat_atl main 1661 1623 O_____________ hurdat_atl AL041965 33.9000 -42.8000 HU 65 1 6 335
1965259N13340 1965 96 NA NA CAROL 1965-09-23 09:00:00 TS 34.1651 -43.0073 main 1623 1594 P_____________ AL041965 34.1651 -43.0073 HU 65 1 6 326
1965259N13340 1965 96 NA NA CAROL 1965-09-23 12:00:00 TS 34.4000 -43.2000 65 988 hurdat_atl main 1594 1571 O_____________ hurdat_atl AL041965 34.4000 -43.2000 HU 65 988 1 5 332
1965259N13340 1965 96 NA NA CAROL 1965-09-23 15:00:00 TS 34.6149 -43.2951 main 1571 1551 P_____________ AL041965 34.6149 -43.2951 HU 62 989 0 4 349
1965259N13340 1965 96 NA NA CAROL 1965-09-23 18:00:00 TS 34.8000 -43.3000 60 hurdat_atl main 1551 1536 I_____________ hurdat_atl AL041965 34.8000 -43.3000 TS 60 990 0 4 10
1965259N13340 1965 96 NA NA CAROL 1965-09-23 21:00:00 TS 34.9725 -43.2301 main 1536 1526 P_____________ AL041965 34.9725 -43.2301 TS 57 991 0 3 28
1965259N13340 1965 96 NA NA CAROL 1965-09-24 00:00:00 TS 35.1000 -43.1000 55 992 hurdat_atl main 1531 1526 O_____________ hurdat_atl AL041965 35.1000 -43.1000 TS 55 992 0 3 46
1965259N13340 1965 96 NA NA CAROL 1965-09-24 03:00:00 TS 35.1800 -42.9650 main 1526 1526 P_____________ AL041965 35.1800 -42.9650 TS 55 992 0 3 68
1965259N13340 1965 96 NA NA CAROL 1965-09-24 06:00:00 TS 35.2000 -42.8000 55 hurdat_atl main 1535 1535 I_____________ hurdat_atl AL041965 35.2000 -42.8000 TS 55 992 0 3 91
1965259N13340 1965 96 NA NA CAROL 1965-09-24 09:00:00 TS 35.1725 -42.6075 main 1545 1545 P_____________ AL041965 35.1725 -42.6075 TS 55 992 0 3 107
1965259N13340 1965 96 NA NA CAROL 1965-09-24 12:00:00 TS 35.1000 -42.4000 55 992 hurdat_atl main 1564 1564 O_____________ hurdat_atl AL041965 35.1000 -42.4000 TS 55 992 0 4 116
1965259N13340 1965 96 NA NA CAROL 1965-09-24 15:00:00 TS 35.0075 -42.1925 main 1583 1583 P_____________ AL041965 35.0075 -42.1925 TS 55 991 0 4 121
1965259N13340 1965 96 NA NA CAROL 1965-09-24 18:00:00 TS 34.9000 -42.0000 55 991 hurdat_atl main 1602 1602 O_____________ hurdat_atl AL041965 34.9000 -42.0000 TS 55 991 0 3 125
1965259N13340 1965 96 NA NA CAROL 1965-09-24 21:00:00 TS 34.8075 -41.8426 main 1621 1621 P_____________ AL041965 34.8075 -41.8426 TS 55 0 3 129
1965259N13340 1965 96 NA NA CAROL 1965-09-25 00:00:00 TS 34.7000 -41.7000 55 hurdat_atl main 1635 1635 O_____________ hurdat_atl AL041965 34.7000 -41.7000 TS 55 0 3 134
1965259N13340 1965 96 NA NA CAROL 1965-09-25 03:00:00 TS 34.5650 -41.5425 main 1655 1655 P_____________ AL041965 34.5650 -41.5425 TS 57 0 4 141
1965259N13340 1965 96 NA NA CAROL 1965-09-25 06:00:00 TS 34.4000 -41.4000 60 hurdat_atl main 1678 1678 O_____________ hurdat_atl AL041965 34.4000 -41.4000 TS 60 0 4 149
1965259N13340 1965 96 NA NA CAROL 1965-09-25 09:00:00 TS 34.2075 -41.2850 main 1702 1702 P_____________ AL041965 34.2075 -41.2850 TS 62 0 4 158
1965259N13340 1965 96 NA NA CAROL 1965-09-25 12:00:00 TS 34.0000 -41.2000 65 986 hurdat_atl main 1726 1726 O_____________ hurdat_atl AL041965 34.0000 -41.2000 HU 65 986 1 4 164
1965259N13340 1965 96 NA NA CAROL 1965-09-25 15:00:00 TS 33.7850 -41.1426 main 1750 1750 P_____________ AL041965 33.7850 -41.1426 HU 65 986 1 4 169
1965259N13340 1965 96 NA NA CAROL 1965-09-25 18:00:00 TS 33.6000 -41.1000 65 986 hurdat_atl main 1769 1769 O_____________ hurdat_atl AL041965 33.6000 -41.1000 HU 65 986 1 3 166
1965259N13340 1965 96 NA NA CAROL 1965-09-25 21:00:00 TS 33.4850 -41.0425 main 1783 1783 P_____________ AL041965 33.4850 -41.0425 HU 65 986 1 2 157
1965259N13340 1965 96 NA NA CAROL 1965-09-26 00:00:00 TS 33.4000 -41.0000 65 986 hurdat_atl main 1792 1792 O_____________ hurdat_atl AL041965 33.4000 -41.0000 HU 65 986 1 2 167
1965259N13340 1965 96 NA NA CAROL 1965-09-26 03:00:00 TS 33.3000 -40.9925 main 1802 1802 P_____________ AL041965 33.3000 -40.9925 HU 65 987 1 2 172
1965259N13340 1965 96 NA NA CAROL 1965-09-26 06:00:00 TS 33.2000 -41.0000 65 hurdat_atl main 1812 1812 I_____________ hurdat_atl AL041965 33.2000 -41.0000 HU 65 989 1 2 173
1965259N13340 1965 96 NA NA CAROL 1965-09-26 09:00:00 TS 33.1075 -40.9849 main 1821 1821 P_____________ AL041965 33.1075 -40.9849 HU 62 990 0 2 172
1965259N13340 1965 96 NA NA CAROL 1965-09-26 12:00:00 TS 33.0000 -41.0000 60 992 hurdat_atl main 1831 1831 O_____________ hurdat_atl AL041965 33.0000 -41.0000 TS 60 992 0 3 197
1965259N13340 1965 96 NA NA CAROL 1965-09-26 15:00:00 TS 32.8425 -41.0776 main 1845 1845 P_____________ AL041965 32.8425 -41.0776 TS 60 0 3 209
1965259N13340 1965 96 NA NA CAROL 1965-09-26 18:00:00 TS 32.7000 -41.2000 60 hurdat_atl main 1850 1846 O_____________ hurdat_atl AL041965 32.7000 -41.2000 TS 60 0 3 224
1965259N13340 1965 96 NA NA CAROL 1965-09-26 21:00:00 TS 32.6125 -41.3426 main 1855 1846 P_____________ AL041965 32.6125 -41.3426 TS 60 0 3 248
1965259N13340 1965 96 NA NA CAROL 1965-09-27 00:00:00 TS 32.6000 -41.5000 60 hurdat_atl main 1846 1827 O_____________ hurdat_atl AL041965 32.6000 -41.5000 TS 60 0 3 282
1965259N13340 1965 96 NA NA CAROL 1965-09-27 03:00:00 TS 32.6700 -41.6649 main 1827 1813 P_____________ AL041965 32.6700 -41.6649 TS 60 0 3 308
1965259N13340 1965 96 NA NA CAROL 1965-09-27 06:00:00 TS 32.8000 -41.8000 60 hurdat_atl main 1813 1799 O_____________ hurdat_atl AL041965 32.8000 -41.8000 TS 60 0 3 328
1965259N13340 1965 96 NA NA CAROL 1965-09-27 09:00:00 TS 32.9425 -41.8725 main 1799 1779 P_____________ AL041965 32.9425 -41.8725 TS 60 0 3 346
1965259N13340 1965 96 NA NA CAROL 1965-09-27 12:00:00 TS 33.1000 -41.9000 60 hurdat_atl main 1779 1770 O_____________ hurdat_atl AL041965 33.1000 -41.9000 TS 60 0 3 354
1965259N13340 1965 96 NA NA CAROL 1965-09-27 15:00:00 TS 33.2500 -41.9150 main 1770 1750 P_____________ AL041965 33.2500 -41.9150 TS 60 0 3 0
1965259N13340 1965 96 NA NA CAROL 1965-09-27 18:00:00 TS 33.4000 -41.9000 60 hurdat_atl main 1750 1740 O_____________ hurdat_atl AL041965 33.4000 -41.9000 TS 60 0 3 9
1965259N13340 1965 96 NA NA CAROL 1965-09-27 21:00:00 TS 33.5500 -41.8575 main 1731 1726 P_____________ AL041965 33.5500 -41.8575 TS 57 0 3 14
1965259N13340 1965 96 NA NA CAROL 1965-09-28 00:00:00 TS 33.7000 -41.8000 55 992 hurdat_atl main 1726 1716 O_____________ hurdat_atl AL041965 33.7000 -41.8000 TS 55 992 0 3 16
1965259N13340 1965 96 NA NA CAROL 1965-09-28 03:00:00 TS 33.8275 -41.7574 main 1716 1702 P_____________ AL041965 33.8275 -41.7574 TS 55 0 3 14
1965259N13340 1965 96 NA NA CAROL 1965-09-28 06:00:00 TS 34.0000 -41.7000 55 hurdat_atl main 1702 1683 O_____________ hurdat_atl AL041965 34.0000 -41.7000 TS 55 0 4 13
1965259N13340 1965 96 NA NA CAROL 1965-09-28 09:00:00 TS 34.2474 -41.6370 main 1688 1655 P_____________ AL041965 34.2474 -41.6370 TS 57 0 6 15
1965259N13340 1965 96 NA NA CAROL 1965-09-28 12:00:00 TS 34.6000 -41.5000 60 hurdat_atl main 1655 1627 O_____________ hurdat_atl AL041965 34.6000 -41.5000 TS 60 0 9 19
1965259N13340 1965 96 NA NA CAROL 1965-09-28 15:00:00 TS 35.0543 -41.2962 main 1618 1593 P_____________ AL041965 35.0543 -41.2962 TS 60 0 11 26
1965259N13340 1965 96 NA NA CAROL 1965-09-28 18:00:00 TS 35.6000 -40.9000 60 988 hurdat_atl main 1593 1576 O_____________ hurdat_atl AL041965 35.6000 -40.9000 TS 60 988 0 14 37
1965259N13340 1965 96 NA NA CAROL 1965-09-28 21:00:00 TS 36.1776 -40.2398 main 1579 1570 P_____________ AL041965 36.1776 -40.2398 TS 65 1 17 45
1965259N13340 1965 96 NA NA CAROL 1965-09-29 00:00:00 TS 36.8000 -39.4000 70 hurdat_atl main 1574 1565 O_____________ hurdat_atl AL041965 36.8000 -39.4000 HU 70 1 18 46
1965259N13340 1965 96 NA NA CAROL 1965-09-29 03:00:00 TS 37.4408 -38.5800 main 1574 1569 P_____________ AL041965 37.4408 -38.5800 HU 75 1 19 48
1965259N13340 1965 96 NA NA CAROL 1965-09-29 06:00:00 TS 38.1000 -37.6000 80 hurdat_atl main 1583 1582 O_____________ hurdat_atl AL041965 38.1000 -37.6000 HU 80 1 22 52
1965259N13340 1965 96 NA NA CAROL 1965-09-29 09:00:00 TS 38.7718 -36.3897 main 1611 1611 P_____________ AL041965 38.7718 -36.3897 HU 80 1 24 57
1965259N13340 1965 96 NA NA CAROL 1965-09-29 12:00:00 TS 39.4000 -35.0000 80 hurdat_atl main 1666 1666 O_____________ hurdat_atl AL041965 39.4000 -35.0000 HU 80 1 25 62
1965259N13340 1965 96 NA NA CAROL 1965-09-29 15:00:00 TS 39.9364 -33.5355 main 1740 1734 P_____________ AL041965 39.9364 -33.5355 HU 77 1 25 67
1965259N13340 1965 96 NA NA CAROL 1965-09-29 18:00:00 TS 40.4000 -32.0000 75 984 hurdat_atl main 1815 1760 O_____________ hurdat_atl AL041965 40.4000 -32.0000 HU 75 984 1 25 70
1965259N13340 1965 96 NA NA CAROL 1965-09-29 21:00:00 TS 40.8151 -30.4034 main 1752 1628 P_____________ AL041965 40.8151 -30.4034 HU 75 1 25 71
1965259N13340 1965 96 NA NA CAROL 1965-09-30 00:00:00 TS 41.2000 -28.9000 75 hurdat_atl main 1620 1512 O_____________ hurdat_atl AL041965 41.2000 -28.9000 HU 75 1 22 69
1965259N13340 1965 96 NA NA CAROL 1965-09-30 03:00:00 TS 41.6273 -27.6321 main 1504 1415 P_____________ AL041965 41.6273 -27.6321 HU 72 1 20 66
1965259N13340 1965 96 NA NA CAROL 1965-09-30 06:00:00 TS 42.0000 -26.5000 70 hurdat_atl main 1407 1320 O_____________ hurdat_atl AL041965 42.0000 -26.5000 HU 70 1 18 68
1965259N13340 1965 96 NA NA CAROL 1965-09-30 09:00:00 TS 42.3032 -25.3940 main 1312 1229 P_____________ AL041965 42.3032 -25.3940 HU 67 1 17 76
1965259N13340 1965 96 NA NA CAROL 1965-09-30 12:00:00 ET 42.4000 -24.3000 65 hurdat_atl main 1221 1135 O_____________ hurdat_atl AL041965 42.4000 -24.3000 EX 65 -4 17 94
1965259N13340 1965 96 NA NA CAROL 1965-09-30 15:00:00 ET 42.1890 -23.1553 main 1135 1054 P_____________ AL041965 42.1890 -23.1553 EX 62 -4 18 109
1965259N13340 1965 96 NA NA CAROL 1965-09-30 18:00:00 ET 41.8000 -22.0000 60 hurdat_atl main 1046 964 O_____________ hurdat_atl AL041965 41.8000 -22.0000 EX 60 -4 19 113
1965259N13340 1965 96 NA NA CAROL 1965-09-30 21:00:00 ET 41.4671 -20.8224 main 956 886 P_____________ AL041965 41.4671 -20.8224 EX 57 -4 19 115
1965259N13340 1965 96 NA NA CAROL 1965-10-01 00:00:00 ET 41.0000 -19.7000 55 hurdat_atl main 882 813 O_____________ hurdat_atl AL041965 41.0000 -19.7000 EX 55 -4 20 126
1965259N13340 1965 96 NA NA CAROL 1965-10-01 03:00:00 ET 40.3161 -18.7133 main 803 726 P_____________ AL041965 40.3161 -18.7133 EX 55 -4 21 136
1965259N13340 1965 96 NA NA CAROL 1965-10-01 06:00:00 ET 39.5000 -17.8000 55 hurdat_atl main 717 639 O_____________ hurdat_atl AL041965 39.5000 -17.8000 EX 55 -4 22 139
1965259N13340 1965 96 NA NA CAROL 1965-10-01 09:00:00 ET 38.6506 -16.8164 main 631 576 P_____________ AL041965 38.6506 -16.8164 EX 52 -4 22 140
1965259N13340 1965 96 NA NA CAROL 1965-10-01 12:00:00 ET 37.8000 -16.0000 50 hurdat_atl main 576 557 O_____________ hurdat_atl AL041965 37.8000 -16.0000 EX 50 -4 19 148
1965259N13340 1965 96 NA NA CAROL 1965-10-01 15:00:00 ET 37.0189 -15.5207 main 561 555 P_____________ AL041965 37.0189 -15.5207 EX 50 -4 16 157
1965259N13340 1965 96 NA NA CAROL 1965-10-01 18:00:00 ET 36.3000 -15.2000 50 hurdat_atl main 557 541 O_____________ hurdat_atl AL041965 36.3000 -15.2000 EX 50 -4 15 158
1965259N13340 1965 96 NA NA CAROL 1965-10-01 21:00:00 ET 35.6125 -14.8279 main 541 536 P_____________ AL041965 35.6125 -14.8279 EX 47 -4 14 156
1965259N13340 1965 96 NA NA CAROL 1965-10-02 00:00:00 ET 35.0000 -14.5000 45 hurdat_atl main 541 505 O_____________ hurdat_atl AL041965 35.0000 -14.5000 EX 45 -4 12 156
1965259N13340 1965 96 NA NA CAROL 1965-10-02 03:00:00 ET 34.4775 -14.1977 main 505 467 P_____________ AL041965 34.4775 -14.1977 EX 42 -4 11 158
1965259N13340 1965 96 NA NA CAROL 1965-10-02 06:00:00 ET 34.0000 -14.0000 40 hurdat_atl main 467 451 O_____________ hurdat_atl AL041965 34.0000 -14.0000 EX 40 -4 10 169
1965259N13340 1965 96 NA NA CAROL 1965-10-02 09:00:00 ET 33.4999 -13.9632 main 451 432 P_____________ AL041965 33.4999 -13.9632 EX 37 -4 10 179
1965259N13340 1965 96 NA NA CAROL 1965-10-02 12:00:00 ET 33.0000 -14.0000 35 hurdat_atl main 432 414 O_____________ hurdat_atl AL041965 33.0000 -14.0000 EX 35 -4 10 183
1965259N13340 1965 96 NA NA CAROL 1965-10-02 15:00:00 ET 32.5000 -14.0000 main 414 368 P_____________ AL041965 32.5000 -14.0000 EX 35 -4 10 179
1965259N13340 1965 96 NA NA CAROL 1965-10-02 18:00:00 ET 32.0000 -14.0000 35 hurdat_atl main 368 312 O_____________ hurdat_atl AL041965 32.0000 -14.0000 EX 35 -4 10 179
1965259N13340 1965 96 NA NA CAROL 1965-10-02 21:00:00 ET 31.4700 -14.0000 main 312 256 P_____________ AL041965 31.4700 -14.0000 EX 32 -4 10 179
1965259N13340 1965 96 NA NA CAROL 1965-10-03 00:00:00 ET 31.0000 -14.0000 30 hurdat_atl main 256 223 O_____________ hurdat_atl AL041965 31.0000 -14.0000 EX 30 -4 8 179
1965259N13340 1965 96 NA NA CAROL 1965-10-03 03:00:00 ET 30.6700 -14.0000 main 223 189 P_____________ AL041965 30.6700 -14.0000 EX 27 -4 6 179
1965259N13340 1965 96 NA NA CAROL 1965-10-03 06:00:00 ET 30.4000 -14.0000 25 hurdat_atl main 189 156 O_____________ hurdat_atl AL041965 30.4000 -14.0000 EX 25 -4 6 0
1965259N13340 1965 96 NA NA CAROL 1965-10-03 09:00:00 ET 30.1100 -14.0000 main 156 122 P_____________ AL041965 30.1100 -14.0000 EX 22 -4 6 179
1965259N13340 1965 96 NA NA CAROL 1965-10-03 12:00:00 ET 29.8000 -14.0000 20 hurdat_atl main 122 O_____________ hurdat_atl AL041965 29.8000 -14.0000 EX 20 -4 6 0

About IBTrACS Database

This database is a web-friendly format of International Best Track Archive for Climate Stewardship (IBTrACS), a global best track data archive curated by NOAA dating back to 1842.

Updated: 2021-12-06